Time;durP1;ratioP1;P1;durP2;ratioP2;P2;SDS_P1;SDS_P2;PMS_P1;PMS_P2;Temp;Humidity;BMP_temperature;BMP_pressure;BME280_temperature;BME280_humidity;BME280_pressure;Samples;Min_cycle;Max_cycle;Signal;HPM_P1;HPM_P2
2023/07/01 00:01:36;;;;;;;14.30;10.70;;;;;;;25.17;49.65;97405.09;5037664;28;20135;-73
2023/07/01 00:04:02;;;;;;;13.07;10.60;;;;;;;25.18;49.98;97412.13;5071863;28;20059;-73
2023/07/01 00:06:28;;;;;;;12.00;10.13;;;;;;;25.23;50.03;97418.28;5071595;28;20044;-73
2023/07/01 00:08:54;;;;;;;13.60;10.27;;;;;;;25.30;49.81;97407.78;5054207;28;20040;-72
2023/07/01 00:11:20;;;;;;;17.27;10.57;;;;;;;25.52;49.32;97416.00;5054835;28;20106;-74
2023/07/01 00:13:47;;;;;;;11.68;9.82;;;;;;;25.57;48.93;97415.84;5070692;28;20048;-73
2023/07/01 00:16:13;;;;;;;12.13;9.65;;;;;;;25.48;49.03;97403.34;5070423;28;20044;-75
2023/07/01 00:18:41;;;;;;;13.73;9.63;;;;;;;25.74;48.81;97415.22;5070620;28;20051;-74
2023/07/01 00:21:07;;;;;;;14.15;9.50;;;;;;;25.60;48.54;97398.94;5054351;28;20099;-75
2023/07/01 00:23:33;;;;;;;13.18;9.98;;;;;;;25.81;48.57;97410.94;5037473;28;20495;-74
2023/07/01 00:26:00;;;;;;;12.88;9.55;;;;;;;25.96;48.58;97424.16;5071666;28;20049;-73
2023/07/01 00:28:26;;;;;;;15.82;9.00;;;;;;;25.77;48.42;97420.81;5071504;28;20040;-73
2023/07/01 00:30:52;;;;;;;14.50;9.38;;;;;;;25.83;48.16;97414.13;5055156;28;20051;-73
2023/07/01 00:33:18;;;;;;;10.88;9.07;;;;;;;25.90;48.00;97403.66;5054268;28;20062;-72
2023/07/01 00:35:43;;;;;;;11.50;9.05;;;;;;;25.85;48.28;97398.31;5054212;28;20880;-72
2023/07/01 00:38:10;;;;;;;14.50;8.55;;;;;;;25.76;48.36;97402.91;5070635;28;20037;-73
2023/07/01 00:40:36;;;;;;;11.38;9.55;;;;;;;25.82;48.60;97403.56;5037110;28;20040;-73
2023/07/01 00:43:01;;;;;;;10.75;9.65;;;;;;;25.78;48.66;97402.59;5071647;28;20087;-72
2023/07/01 00:45:29;;;;;;;17.13;8.85;;;;;;;25.83;48.88;97400.53;5055179;28;20046;-73
2023/07/01 00:47:55;;;;;;;10.80;8.93;;;;;;;25.89;48.90;97402.00;5054348;28;20048;-73
2023/07/01 00:50:21;;;;;;;11.32;8.48;;;;;;;25.85;49.02;97387.44;5071246;28;20353;-74
2023/07/01 00:52:47;;;;;;;11.10;8.55;;;;;;;26.03;48.60;97396.56;5054201;28;20041;-73
2023/07/01 00:55:13;;;;;;;12.55;8.63;;;;;;;26.13;48.56;97399.81;5037512;28;20043;-72
2023/07/01 00:57:39;;;;;;;13.32;8.80;;;;;;;26.15;48.38;97394.88;5071834;28;20118;-73
2023/07/01 01:00:11;;;;;;;9.18;8.25;;;;;;;26.15;48.63;97392.16;5037594;28;20044;-73
2023/07/01 01:02:54;;;;;;;11.45;8.07;;;;;;;26.39;48.21;97386.31;5054491;28;20040;-73
2023/07/01 01:05:34;;;;;;;11.75;8.20;;;;;;;26.36;48.23;97395.13;5071442;28;20139;-74
2023/07/01 01:08:12;;;;;;;9.27;7.90;;;;;;;26.44;48.41;97394.34;5020993;28;20102;-72
2023/07/01 01:10:41;;;;;;;13.32;7.68;;;;;;;26.27;48.68;97399.72;5070672;28;20098;-73
2023/07/01 01:13:07;;;;;;;9.98;8.07;;;;;;;26.31;48.34;97409.66;5053554;28;20055;-73
2023/07/01 01:15:33;;;;;;;12.73;7.72;;;;;;;26.34;48.15;97409.03;5069898;28;20040;-73
2023/07/01 01:18:02;;;;;;;9.60;7.50;;;;;;;26.62;47.78;97403.41;5070301;28;20480;-72
2023/07/01 01:20:30;;;;;;;11.30;7.82;;;;;;;26.61;47.84;97394.44;5036808;28;20052;-73
2023/07/01 01:23:00;;;;;;;18.85;8.82;;;;;;;26.59;48.49;97395.84;5053790;28;20110;-73
2023/07/01 01:25:55;;;;;;;8.43;7.55;;;;;;;26.90;47.41;97408.31;5052705;28;20080;-73
2023/07/01 01:28:22;;;;;;;9.50;7.53;;;;;;;26.48;48.28;97393.41;5034181;28;20418;-72
2023/07/01 01:30:47;;;;;;;10.82;7.68;;;;;;;26.35;48.25;97385.34;5035395;28;20713;-72
2023/07/01 01:33:14;;;;;;;9.75;7.57;;;;;;;26.41;48.52;97389.53;5068745;28;20040;-72
2023/07/01 01:35:40;;;;;;;10.90;7.65;;;;;;;26.45;48.82;97387.78;5035732;28;20060;-72
2023/07/01 01:38:08;;;;;;;11.23;7.57;;;;;;;26.64;49.09;97388.38;5018960;28;20098;-73
2023/07/01 01:40:47;;;;;;;11.23;7.40;;;;;;;26.48;48.83;97372.75;5035802;28;20040;-73
2023/07/01 01:43:16;;;;;;;10.13;7.38;;;;;;;26.90;48.55;97393.88;5052729;28;20044;-73
2023/07/01 01:45:42;;;;;;;9.05;7.28;;;;;;;26.83;48.16;97396.28;5073614;28;20082;-73
2023/07/01 01:48:09;;;;;;;10.93;7.20;;;;;;;26.97;47.68;97391.53;5074862;28;20056;-72
2023/07/01 01:50:36;;;;;;;9.68;7.40;;;;;;;26.88;47.90;97383.31;5023377;28;20048;-72
2023/07/01 01:53:02;;;;;;;10.18;7.38;;;;;;;26.94;47.83;97389.44;5023023;28;20170;-73
2023/07/01 01:55:30;;;;;;;9.15;7.22;;;;;;;27.07;47.83;97388.47;5056063;28;20491;-72
2023/07/01 01:57:57;;;;;;;9.63;6.90;;;;;;;27.04;47.66;97395.38;5056685;28;20349;-73
2023/07/01 02:00:23;;;;;;;10.43;6.93;;;;;;;26.86;48.05;97387.47;5056265;28;20113;-72
2023/07/01 02:02:49;;;;;;;7.90;6.68;;;;;;;26.88;47.98;97385.25;5073772;28;20844;-73
2023/07/01 02:05:15;;;;;;;9.70;6.88;;;;;;;26.94;47.60;97379.31;5072663;28;20490;-73
2023/07/01 02:07:41;;;;;;;10.50;6.90;;;;;;;27.01;47.64;97382.38;5073022;28;20036;-71
2023/07/01 02:10:07;;;;;;;7.53;6.60;;;;;;;27.19;47.65;97377.75;5007002;28;20136;-72
2023/07/01 02:12:35;;;;;;;7.72;6.95;;;;;;;27.12;47.24;97386.44;5072693;28;20051;-73
2023/07/01 02:15:04;;;;;;;8.77;6.28;;;;;;;27.11;47.50;97384.81;5039626;28;20036;-72
2023/07/01 02:17:33;;;;;;;10.20;6.55;;;;;;;27.17;47.15;97388.19;5056484;28;20052;-73
2023/07/01 02:20:19;;;;;;;10.00;6.63;;;;;;;27.31;47.14;97391.56;5058772;28;20084;-72
2023/07/01 02:22:45;;;;;;;10.85;6.65;;;;;;;27.26;47.36;97389.03;5022830;28;20047;-73
2023/07/01 02:25:11;;;;;;;8.10;6.55;;;;;;;27.42;46.71;97388.22;5039538;28;20060;-70
2023/07/01 02:27:37;;;;;;;6.72;5.82;;;;;;;27.40;46.94;97392.41;5073370;28;20508;-70
2023/07/01 02:30:04;;;;;;;7.03;6.00;;;;;;;27.30;46.65;97393.53;5072303;28;20075;-71
2023/07/01 02:32:31;;;;;;;9.38;6.30;;;;;;;27.41;46.85;97394.81;5055521;28;20482;-73
2023/07/01 02:34:57;;;;;;;8.88;5.97;;;;;;;27.42;47.14;97390.16;5073760;28;20045;-73
2023/07/01 02:37:23;;;;;;;7.93;6.45;;;;;;;27.43;47.05;97392.53;5055161;28;20118;-73
2023/07/01 02:39:49;;;;;;;9.98;6.00;;;;;;;27.56;46.86;97398.97;5073260;28;20119;-72
2023/07/01 02:42:19;;;;;;;6.95;5.65;;;;;;;27.49;46.66;97391.25;5072056;28;20143;-72
2023/07/01 02:44:46;;;;;;;8.20;5.93;;;;;;;27.96;45.87;97406.69;5039557;28;20498;-72
2023/07/01 02:47:15;;;;;;;6.97;5.55;;;;;;;28.18;45.01;97404.84;5055874;28;20427;-72
2023/07/01 02:49:43;;;;;;;6.90;5.63;;;;;;;28.36;44.48;97403.69;5055611;28;20085;-72
2023/07/01 02:52:11;;;;;;;6.72;6.03;;;;;;;28.24;44.56;97403.56;5055632;28;20156;-72
2023/07/01 02:54:41;;;;;;;8.02;5.63;;;;;;;28.28;44.64;97408.03;5073017;28;20041;-72
2023/07/01 02:57:08;;;;;;;7.55;5.82;;;;;;;28.39;43.87;97392.91;5054809;28;20094;-73
2023/07/01 02:59:37;;;;;;;8.85;5.95;;;;;;;28.54;43.37;97406.06;5071591;28;20044;-73
2023/07/01 03:02:04;;;;;;;7.32;5.55;;;;;;;28.54;43.97;97408.78;5072857;28;20051;-72
2023/07/01 03:04:31;;;;;;;8.32;5.70;;;;;;;28.47;43.77;97415.88;5055782;28;20044;-72
2023/07/01 03:06:57;;;;;;;11.00;5.88;;;;;;;28.51;43.68;97414.91;5022326;28;20388;-72
2023/07/01 03:09:23;;;;;;;8.40;5.68;;;;;;;28.57;43.85;97412.81;5073508;28;20040;-72
2023/07/01 03:11:49;;;;;;;10.98;5.82;;;;;;;28.59;43.62;97411.34;5072743;28;20056;-73
2023/07/01 03:14:16;;;;;;;9.40;5.22;;;;;;;28.98;43.00;97407.44;5072418;28;20040;-73
2023/07/01 03:16:42;;;;;;;9.55;5.97;;;;;;;29.02;42.10;97403.72;5039143;28;20040;-72
2023/07/01 03:19:09;;;;;;;6.95;5.60;;;;;;;29.31;41.99;97411.94;5055732;28;20142;-72
2023/07/01 03:21:37;;;;;;;5.85;5.15;;;;;;;29.46;41.59;97394.91;5072874;28;20038;-72
2023/07/01 03:24:03;;;;;;;5.72;5.05;;;;;;;29.45;41.41;97403.47;5038958;28;20197;-75
2023/07/01 03:26:29;;;;;;;6.72;5.55;;;;;;;29.46;41.16;97408.59;5055071;28;20139;-74
2023/07/01 03:28:56;;;;;;;9.20;5.90;;;;;;;29.42;41.84;97396.72;5055801;28;20040;-73
2023/07/01 03:31:23;;;;;;;7.20;5.28;;;;;;;29.41;41.92;97400.59;5039713;28;20051;-73
2023/07/01 03:33:49;;;;;;;9.75;5.90;;;;;;;29.33;41.72;97393.25;5053647;28;20504;-73
2023/07/01 03:36:16;;;;;;;8.13;5.53;;;;;;;29.32;42.29;97399.84;5070070;28;20056;-72
2023/07/01 03:38:41;;;;;;;6.65;5.90;;;;;;;29.25;42.01;97405.06;5037051;28;20495;-72
2023/07/01 03:41:07;;;;;;;11.52;5.95;;;;;;;29.20;42.08;97405.25;5070191;28;20076;-72
2023/07/01 03:43:34;;;;;;;10.50;5.72;;;;;;;29.26;42.15;97409.38;5070139;28;20135;-72
2023/07/01 03:46:00;;;;;;;8.40;5.63;;;;;;;29.22;42.06;97408.47;5069855;28;20411;-71
2023/07/01 03:48:26;;;;;;;6.05;5.43;;;;;;;29.30;41.47;97391.19;5053429;28;20059;-70
2023/07/01 03:50:52;;;;;;;6.82;5.45;;;;;;;29.50;41.31;97404.06;5053281;28;20045;-70
2023/07/01 03:53:18;;;;;;;7.03;5.47;;;;;;;29.28;41.53;97409.06;5053486;28;20189;-70
2023/07/01 03:55:44;;;;;;;6.88;5.68;;;;;;;29.15;41.78;97396.44;5036301;28;20428;-71
2023/07/01 03:58:10;;;;;;;7.63;5.97;;;;;;;29.10;41.75;97408.38;5070309;28;20101;-72
2023/07/01 04:00:36;;;;;;;6.45;5.60;;;;;;;28.77;43.02;97404.66;5053258;28;20397;-72
2023/07/01 04:03:09;;;;;;;9.55;5.95;;;;;;;28.40;43.96;97399.97;5069761;28;20036;-72
2023/07/01 04:05:35;;;;;;;6.15;5.55;;;;;;;28.56;43.52;97390.16;5067194;28;20070;-72
2023/07/01 04:08:04;;;;;;;7.22;6.03;;;;;;;28.55;44.05;97393.19;5070926;28;20448;-71
2023/07/01 04:10:30;;;;;;;6.63;5.65;;;;;;;28.37;44.41;97399.84;5037163;28;20048;-72
2023/07/01 04:12:57;;;;;;;8.38;6.05;;;;;;;28.25;44.96;97400.50;5070473;28;20044;-73
2023/07/01 04:15:24;;;;;;;12.77;6.85;;;;;;;28.47;44.70;97407.69;5054044;28;20078;-73
2023/07/01 04:17:50;;;;;;;11.63;6.47;;;;;;;28.49;44.19;97399.97;5070439;28;20136;-72
2023/07/01 04:20:19;;;;;;;9.93;6.68;;;;;;;28.67;43.48;97405.03;5054074;28;20036;-73
2023/07/01 04:22:46;;;;;;;8.73;5.78;;;;;;;28.71;43.63;97405.97;5054486;28;20036;-73
2023/07/01 04:25:12;;;;;;;7.47;5.80;;;;;;;28.86;42.65;97410.09;5053972;28;20040;-74
2023/07/01 04:27:42;;;;;;;9.23;6.85;;;;;;;29.05;42.23;97407.72;5070216;28;20052;-74
2023/07/01 04:30:09;;;;;;;;;;;;;;;29.58;40.83;97416.84;5071969;28;20044;-75
2023/07/01 04:32:36;;;;;;;8.15;6.30;;;;;;;29.59;40.76;97410.28;5037078;28;19947;-73
2023/07/01 04:35:02;;;;;;;9.63;6.25;;;;;;;29.83;40.24;97417.03;5070253;28;20040;-75
2023/07/01 04:37:30;;;;;;;11.80;6.43;;;;;;;30.14;39.27;97420.13;5037467;28;20080;-74
2023/07/01 04:39:56;;;;;;;7.03;6.32;;;;;;;30.23;38.38;97421.63;5070685;28;20636;-75
2023/07/01 04:42:21;;;;;;;9.30;5.85;;;;;;;30.30;38.52;97419.16;5070068;28;20059;-76
2023/07/01 04:44:53;;;;;;;9.40;6.05;;;;;;;30.28;38.35;97407.72;5070329;28;20044;-75
2023/07/01 04:47:23;;;;;;;6.72;5.45;;;;;;;30.50;38.62;97420.22;5070224;28;20057;-76
2023/07/01 04:49:52;;;;;;;7.43;5.22;;;;;;;30.40;38.38;97426.16;5053786;28;20037;-75
2023/07/01 04:52:23;;;;;;;6.60;5.63;;;;;;;30.80;37.99;97427.13;5070420;28;20139;-74
2023/07/01 04:54:50;;;;;;;8.23;5.10;;;;;;;30.75;38.07;97425.41;5070303;28;20364;-73
2023/07/01 04:57:17;;;;;;;6.57;5.45;;;;;;;31.03;37.69;97425.53;5071269;28;20040;-73
2023/07/01 04:59:43;;;;;;;6.90;4.57;;;;;;;30.96;37.16;97436.28;5053964;28;20382;-75
2023/07/01 05:02:09;;;;;;;8.20;4.72;;;;;;;30.87;37.54;97427.38;5070379;28;20369;-74
2023/07/01 05:04:37;;;;;;;7.95;4.70;;;;;;;30.86;37.48;97429.28;5071301;28;20045;-74
2023/07/01 05:07:03;;;;;;;9.57;4.68;;;;;;;30.67;37.81;97425.50;5054370;28;20075;-74
2023/07/01 05:09:29;;;;;;;7.35;4.88;;;;;;;30.78;37.54;97432.94;5073839;28;20127;-74
2023/07/01 05:11:55;;;;;;;7.72;4.40;;;;;;;30.85;36.95;97415.94;5070647;28;20033;-75
2023/07/01 05:14:21;;;;;;;4.68;3.97;;;;;;;31.04;36.47;97433.41;5053612;28;20480;-75
2023/07/01 05:16:47;;;;;;;6.03;4.70;;;;;;;31.29;36.08;97433.41;5071537;28;20048;-75
2023/07/01 05:19:12;;;;;;;5.75;4.50;;;;;;;30.85;36.81;97424.97;5071053;28;20048;-78
2023/07/01 05:21:48;;;;;;;5.65;4.80;;;;;;;31.46;36.18;97433.19;5074434;28;20049;-73
2023/07/01 05:24:14;;;;;;;4.90;4.38;;;;;;;31.25;36.17;97427.78;5074547;28;20097;-70
2023/07/01 05:26:44;;;;;;;5.53;4.32;;;;;;;31.61;36.12;97427.75;5041632;28;20048;-71
2023/07/01 05:29:09;;;;;;;7.18;4.93;;;;;;;31.70;35.59;97439.41;5075828;28;20431;-75
2023/07/01 05:31:35;;;;;;;7.90;4.65;;;;;;;31.76;34.97;97438.00;5074568;28;20044;-74
2023/07/01 05:34:01;;;;;;;9.23;4.65;;;;;;;31.85;34.82;97435.94;5074352;28;20383;-75
2023/07/01 05:36:27;;;;;;;6.80;4.40;;;;;;;31.88;34.93;97437.19;5073170;28;20037;-75
2023/07/01 05:38:53;;;;;;;5.50;4.57;;;;;;;32.11;34.37;97438.22;5056398;28;20124;-74
2023/07/01 05:41:19;;;;;;;7.63;4.50;;;;;;;32.17;33.16;97445.06;5072925;28;20041;-74
2023/07/01 05:43:45;;;;;;;6.03;4.28;;;;;;;32.36;32.96;97464.47;5074083;28;20357;-77
2023/07/01 05:46:12;;;;;;;7.07;4.32;;;;;;;32.36;32.46;97453.47;5073721;28;20076;-77
2023/07/01 05:48:38;;;;;;;8.65;4.40;;;;;;;32.37;32.71;97460.56;5073545;28;20362;-79
2023/07/01 05:51:04;;;;;;;5.07;4.10;;;;;;;32.71;32.24;97459.91;5057361;28;20048;-78
2023/07/01 05:53:31;;;;;;;5.40;4.00;;;;;;;32.84;31.55;97452.38;5057045;28;20040;-76
2023/07/01 05:55:56;;;;;;;10.38;4.28;;;;;;;32.99;31.51;97435.09;5074314;28;20135;-74
2023/07/01 05:58:23;;;;;;;6.63;4.40;;;;;;;33.25;31.10;97438.06;5056438;28;20420;-75
2023/07/01 06:00:50;;;;;;;8.52;4.07;;;;;;;32.95;31.27;97448.78;5073682;28;20205;-75
2023/07/01 06:03:16;;;;;;;6.50;4.20;;;;;;;32.78;31.73;97451.06;5073517;28;20047;-77
2023/07/01 06:05:41;;;;;;;8.23;4.05;;;;;;;32.97;31.60;97451.19;5023931;28;20040;-75
2023/07/01 06:08:09;;;;;;;9.25;4.32;;;;;;;32.66;31.88;97458.22;5074349;28;20044;-77
2023/07/01 06:10:37;;;;;;;4.65;3.83;;;;;;;33.09;31.03;97457.34;5056331;28;20044;-75
2023/07/01 06:13:02;;;;;;;5.68;3.60;;;;;;;33.40;30.55;97464.81;5073419;28;20044;-75
2023/07/01 06:15:29;;;;;;;6.63;4.68;;;;;;;33.67;30.28;97469.34;5057569;28;20060;-76
2023/07/01 06:17:55;;;;;;;8.10;3.92;;;;;;;34.24;29.72;97466.66;5040674;28;20131;-80
2023/07/01 06:20:23;;;;;;;6.22;4.43;;;;;;;34.26;29.42;97467.06;5074854;28;20044;-76
2023/07/01 06:22:49;;;;;;;5.47;3.65;;;;;;;33.87;29.94;97454.44;5041698;28;20147;-78
2023/07/01 06:25:14;;;;;;;5.95;3.92;;;;;;;34.06;29.61;97462.72;5075441;28;20119;-71
2023/07/01 06:27:40;;;;;;;7.10;3.60;;;;;;;33.78;30.09;97451.13;5039832;28;20067;-76
2023/07/01 06:30:07;;;;;;;4.38;3.90;;;;;;;34.13;29.85;97458.19;5071219;28;20044;-77
2023/07/01 06:32:34;;;;;;;10.88;9.20;;;;;;;34.26;29.80;97456.03;5038441;28;20098;-77
2023/07/01 06:35:00;;;;;;;5.43;4.20;;;;;;;34.23;29.85;97454.81;5038960;28;20059;-78
2023/07/01 06:37:26;;;;;;;7.03;5.65;;;;;;;34.32;29.78;97456.56;5037551;28;20044;-76
2023/07/01 06:39:52;;;;;;;9.43;6.75;;;;;;;34.73;28.67;97450.25;5037325;28;20147;-79
2023/07/01 06:42:18;;;;;;;10.18;4.28;;;;;;;35.01;28.11;97462.59;5037712;28;20044;-75
2023/07/01 06:44:44;;;;;;;5.72;3.70;;;;;;;34.78;28.16;97452.72;5054435;28;20485;-74
2023/07/01 06:47:10;;;;;;;6.05;4.13;;;;;;;34.44;28.57;97451.72;5037759;28;20501;-76
2023/07/01 06:49:36;;;;;;;3.85;3.47;;;;;;;34.79;28.26;97446.84;5070898;28;20528;-77
2023/07/01 06:52:02;;;;;;;6.10;3.72;;;;;;;34.67;27.69;97451.72;5054272;28;20113;-77
2023/07/01 06:54:28;;;;;;;4.28;3.85;;;;;;;34.64;27.29;97469.00;5054069;28;20045;-78
2023/07/01 06:56:54;;;;;;;6.00;3.10;;;;;;;34.04;27.71;97462.31;5070460;28;20087;-76
2023/07/01 06:59:20;;;;;;;7.68;3.58;;;;;;;34.02;27.88;97467.38;5070403;28;20044;-77
2023/07/01 07:01:46;;;;;;;4.35;3.42;;;;;;;34.14;28.04;97461.72;5054289;28;20036;-76
2023/07/01 07:04:12;;;;;;;11.48;6.30;;;;;;;34.45;27.60;97464.31;5039483;28;20056;-77
2023/07/01 07:06:40;;;;;;;6.53;3.70;;;;;;;34.76;27.15;97458.59;5059064;28;20037;-77
2023/07/01 07:09:06;;;;;;;9.63;7.20;;;;;;;34.90;27.31;97456.13;5076831;28;20070;-76
2023/07/01 07:11:32;;;;;;;5.10;3.30;;;;;;;34.83;27.23;97452.41;5073865;28;20076;-78
2023/07/01 07:13:58;;;;;;;6.82;3.75;;;;;;;34.72;27.36;97448.69;5039111;28;20044;-69
2023/07/01 07:16:26;;;;;;;3.63;3.30;;;;;;;35.09;27.03;97447.75;5055154;28;20063;-69
2023/07/01 07:18:51;;;;;;;8.00;3.10;;;;;;;35.29;26.42;97448.47;5071550;28;20055;-70
2023/07/01 07:21:17;;;;;;;6.13;3.30;;;;;;;35.72;25.51;97436.88;5055059;28;20048;-71
2023/07/01 07:23:43;;;;;;;4.28;3.00;;;;;;;36.13;24.87;97457.97;5038337;28;20440;-69
2023/07/01 07:26:09;;;;;;;4.70;3.13;;;;;;;36.41;24.73;97450.00;5037945;28;20051;-69
2023/07/01 07:28:38;;;;;;;10.15;3.53;;;;;;;36.78;23.99;97434.19;5038523;28;20148;-69
2023/07/01 07:31:04;;;;;;;5.85;3.25;;;;;;;37.41;22.74;97450.56;5036797;28;20063;-69
2023/07/01 07:33:30;;;;;;;5.65;3.00;;;;;;;38.27;22.00;97442.31;5013459;28;20049;-69
2023/07/01 07:35:56;;;;;;;3.70;2.88;;;;;;;39.35;20.44;97444.41;5030273;28;20053;-68
2023/07/01 07:38:21;;;;;;;6.82;2.80;;;;;;;40.24;20.00;97443.78;5013238;28;20628;-68
2023/07/01 07:40:48;;;;;;;7.57;3.10;;;;;;;41.02;19.16;97451.69;5026749;28;20064;-69
2023/07/01 07:43:14;;;;;;;4.30;2.75;;;;;;;41.72;18.62;97451.88;4978078;28;20053;-69
2023/07/01 07:45:39;;;;;;;8.63;2.80;;;;;;;41.64;18.66;97447.56;5025796;28;20061;-70
2023/07/01 07:48:06;;;;;;;6.22;3.63;;;;;;;40.94;19.50;97448.19;5009984;28;20088;-69
2023/07/01 07:50:33;;;;;;;11.02;3.53;;;;;;;40.45;20.08;97456.84;5012996;28;20060;-68
2023/07/01 07:52:59;;;;;;;3.78;3.45;;;;;;;40.50;19.79;97444.50;5013423;28;20482;-69
2023/07/01 07:55:26;;;;;;;7.03;3.88;;;;;;;41.81;18.71;97464.53;5013439;28;20042;-69
2023/07/01 07:57:51;;;;;;;6.72;4.00;;;;;;;44.09;16.66;97459.03;5013408;28;20140;-69
2023/07/01 08:00:17;;;;;;;5.85;3.20;;;;;;;44.47;15.98;97456.66;5029971;28;20137;-69
2023/07/01 08:02:47;;;;;;;5.28;3.20;;;;;;;43.80;15.96;97444.03;4985291;28;20077;-68
2023/07/01 08:05:16;;;;;;;5.65;3.30;;;;;;;42.55;17.31;97445.69;5029922;28;20072;-68
2023/07/01 08:07:45;;;;;;;6.47;3.47;;;;;;;43.80;15.88;97466.41;5054097;28;20052;-69
2023/07/01 08:10:11;;;;;;;3.53;2.95;;;;;;;46.10;13.90;97466.19;5070907;28;20135;-69
2023/07/01 08:12:37;;;;;;;5.50;3.08;;;;;;;48.07;12.50;97465.44;5053974;28;20154;-69
2023/07/01 08:15:04;;;;;;;6.20;2.83;;;;;;;49.90;11.29;97479.38;5037310;28;20036;-69
2023/07/01 08:17:32;;;;;;;5.20;2.87;;;;;;;51.70;10.04;97482.91;5054164;28;20139;-69
2023/07/01 08:19:58;;;;;;;4.40;2.78;;;;;;;52.58;8.80;97464.00;5037586;28;20044;-69
2023/07/01 08:22:24;;;;;;;4.18;2.92;;;;;;;53.18;8.52;97458.53;5053926;28;20040;-68
2023/07/01 08:24:50;;;;;;;6.28;2.55;;;;;;;53.55;7.99;97465.25;5053536;28;20330;-69
2023/07/01 08:27:16;;;;;;;6.63;2.60;;;;;;;54.16;8.02;97461.09;5053984;28;20110;-68
2023/07/01 08:29:42;;;;;;;3.10;2.47;;;;;;;55.12;7.19;97467.91;5037159;28;20045;-69
2023/07/01 08:32:10;;;;;;;2.70;2.50;;;;;;;55.51;6.55;97454.72;5020755;28;20165;-71
2023/07/01 08:34:36;;;;;;;4.20;2.22;;;;;;;54.85;7.13;97459.97;5054096;28;20183;-68
2023/07/01 08:37:02;;;;;;;5.03;2.33;;;;;;;53.06;7.96;97460.44;5037355;28;20532;-68
2023/07/01 08:39:28;;;;;;;3.83;2.65;;;;;;;50.85;9.03;97454.41;5053668;28;20366;-68
2023/07/01 08:42:02;;;;;;;5.95;3.10;;;;;;;49.63;10.63;97442.66;5070194;28;20055;-68
2023/07/01 08:44:29;;;;;;;4.90;3.33;;;;;;;48.17;11.33;97439.72;5071594;28;20426;-68
2023/07/01 08:46:55;;;;;;;6.78;3.42;;;;;;;47.39;12.04;97444.53;5070022;28;20146;-68
2023/07/01 08:49:23;;;;;;;8.25;3.20;;;;;;;47.18;12.44;97431.13;5070249;28;20139;-68
2023/07/01 08:52:06;;;;;;;4.05;2.85;;;;;;;48.69;10.86;97447.38;5037719;28;20106;-68
2023/07/01 08:54:33;;;;;;;4.82;3.20;;;;;;;50.54;9.86;97455.47;5055085;28;20531;-68
2023/07/01 08:57:00;;;;;;;7.93;2.95;;;;;;;52.64;7.96;97456.41;5057451;28;20101;-68
2023/07/01 08:59:27;;;;;;;5.28;2.90;;;;;;;54.46;7.24;97461.66;5057952;28;20051;-68
2023/07/01 09:01:53;;;;;;;4.85;2.85;;;;;;;55.07;6.89;97462.94;5074224;28;20093;-69
2023/07/01 09:04:19;;;;;;;4.72;2.40;;;;;;;55.67;6.26;97470.31;5041058;28;20488;-69
2023/07/01 09:06:45;;;;;;;10.00;2.88;;;;;;;54.13;7.17;97455.66;5074058;28;20060;-68
2023/07/01 09:09:11;;;;;;;5.10;2.67;;;;;;;52.18;7.65;97450.38;5074286;28;20078;-68
2023/07/01 09:11:37;;;;;;;5.72;2.85;;;;;;;51.88;7.91;97441.06;5041979;28;20048;-68
2023/07/01 09:14:03;;;;;;;5.85;3.00;;;;;;;50.79;8.64;97447.84;5075280;28;20476;-68
2023/07/01 09:16:34;;;;;;;4.07;3.30;;;;;;;49.89;9.43;97446.75;5074008;28;20055;-68
2023/07/01 09:19:10;;;;;;;5.88;2.72;;;;;;;50.94;8.37;97448.72;5074073;28;20041;-68
2023/07/01 09:21:39;;;;;;;5.65;3.25;;;;;;;51.39;8.26;97454.16;5074831;28;20454;-68
2023/07/01 09:24:06;;;;;;;4.47;4.05;;;;;;;51.27;8.53;97452.34;5057486;28;20044;-68
2023/07/01 09:26:33;;;;;;;6.45;3.47;;;;;;;52.39;8.05;97439.97;5057614;28;20155;-68
2023/07/01 09:28:59;;;;;;;8.23;6.20;;;;;;;54.08;7.27;97453.53;5073791;28;20048;-68
2023/07/01 09:31:28;;;;;;;5.18;2.65;;;;;;;53.51;7.26;97444.81;5074449;28;20118;-70
2023/07/01 09:33:59;;;;;;;;;;;;;;;51.88;7.82;97446.72;5073899;28;20090;-69
2023/07/01 09:36:26;;;;;;;4.63;2.72;;;;;;;49.91;9.07;97447.06;5057157;28;19917;-69
2023/07/01 09:38:52;;;;;;;4.10;3.10;;;;;;;49.07;10.21;97440.19;5073715;28;20036;-68
2023/07/01 09:41:23;;;;;;;4.25;3.03;;;;;;;50.38;8.89;97444.50;5057042;28;20040;-68
2023/07/01 09:43:50;;;;;;;7.07;3.20;;;;;;;51.09;8.67;97446.78;5074906;28;20181;-68
2023/07/01 09:46:16;;;;;;;7.95;3.10;;;;;;;50.60;8.54;97444.28;5074180;28;20417;-68
2023/07/01 09:48:55;;;;;;;5.28;3.30;;;;;;;49.63;9.08;97436.22;5073985;28;20067;-68
2023/07/01 09:51:26;;;;;;;;;;;;;;;50.22;8.71;97441.25;5057948;28;20040;-68
2023/07/01 09:53:51;;;;;;;6.82;3.42;;;;;;;50.66;8.66;97447.22;5073880;28;19920;-68
2023/07/01 09:56:18;;;;;;;5.38;3.45;;;;;;;51.38;8.12;97430.75;5073275;28;20072;-68
2023/07/01 09:58:45;;;;;;;4.43;3.20;;;;;;;53.05;7.51;97447.53;5073183;28;20044;-69
2023/07/01 10:01:15;;;;;;;5.75;2.92;;;;;;;54.58;6.52;97446.28;5073158;28;20079;-68
2023/07/01 10:03:42;;;;;;;3.53;2.95;;;;;;;55.79;6.09;97457.72;5073199;28;20072;-68
2023/07/01 10:06:09;;;;;;;3.47;2.63;;;;;;;56.79;4.94;97448.03;5072814;28;20052;-69
2023/07/01 10:08:36;;;;;;;4.47;2.63;;;;;;;56.52;5.20;97436.63;5039599;28;20037;-68
2023/07/01 10:11:04;;;;;;;6.22;2.80;;;;;;;55.46;5.52;97435.53;5073849;28;20090;-69
2023/07/01 10:13:34;;;;;;;13.95;3.25;;;;;;;53.93;5.98;97442.28;5055996;28;20104;-68
2023/07/01 10:16:02;;;;;;;5.63;2.95;;;;;;;54.00;6.31;97441.03;5056108;28;20088;-68
2023/07/01 10:18:30;;;;;;;6.38;2.80;;;;;;;54.02;6.31;97438.47;5039878;28;20037;-69
2023/07/01 10:21:26;;;;;;;5.75;2.72;;;;;;;52.21;7.34;97431.63;5039972;28;20106;-69
2023/07/01 10:23:55;;;;;;;3.58;3.10;;;;;;;50.80;7.68;97438.91;5068449;28;20084;-68
2023/07/01 10:26:47;;;;;;;6.47;3.35;;;;;;;51.80;7.25;97434.22;5072928;28;20036;-68
2023/07/01 10:29:39;;;;;;;12.45;3.08;;;;;;;53.69;6.71;97432.41;5056293;28;20048;-68
2023/07/01 10:32:08;;;;;;;4.80;2.90;;;;;;;55.14;5.93;97442.59;5053047;28;20048;-69
2023/07/01 10:34:52;;;;;;;4.00;2.92;;;;;;;55.05;5.91;97442.78;5073249;28;20055;-69
2023/07/01 10:37:22;;;;;;;5.50;2.72;;;;;;;53.47;7.00;97429.28;5072261;28;20048;-68
2023/07/01 10:39:49;;;;;;;4.57;3.08;;;;;;;53.20;6.78;97431.22;5072136;28;20101;-68
2023/07/01 10:42:31;;;;;;;3.30;2.70;;;;;;;54.04;6.35;97445.22;5072335;28;20048;-71
2023/07/01 10:45:10;;;;;;;7.93;2.72;;;;;;;53.50;6.46;97448.16;5056454;28;20353;-69
2023/07/01 10:48:02;;;;;;;5.72;2.80;;;;;;;54.25;6.51;97440.28;5073335;28;20080;-71
2023/07/01 10:50:28;;;;;;;4.43;2.97;;;;;;;54.73;5.87;97436.31;5055609;28;20118;-69
2023/07/01 10:53:03;;;;;;;6.25;2.97;;;;;;;55.61;5.51;97443.91;5055877;28;20495;-69
2023/07/01 10:55:40;;;;;;;2.97;2.70;;;;;;;55.66;5.40;97438.22;5055621;28;20075;-69
2023/07/01 10:58:16;;;;;;;7.95;2.70;;;;;;;54.06;5.95;97436.97;5072212;28;20097;-70
2023/07/01 11:00:42;;;;;;;7.43;3.35;;;;;;;52.37;6.97;97439.66;5072627;28;20550;-69
2023/07/01 11:03:37;;;;;;;3.38;3.08;;;;;;;51.31;7.88;97430.28;5039316;28;20423;-69
2023/07/01 11:06:11;;;;;;;4.32;2.90;;;;;;;50.69;7.70;97421.66;5055088;28;20045;-69
2023/07/01 11:08:51;;;;;;;4.93;3.15;;;;;;;49.56;8.61;97422.41;5055749;28;20040;-68
2023/07/01 11:11:26;;;;;;;3.97;3.15;;;;;;;48.67;9.24;97424.53;5071764;28;20410;-71
2023/07/01 11:14:08;;;;;;;7.15;3.25;;;;;;;47.98;9.47;97423.16;5038845;28;20045;-69
2023/07/01 11:16:37;;;;;;;3.88;3.15;;;;;;;47.48;10.35;97416.47;5055509;28;20064;-69
2023/07/01 11:19:15;;;;;;;4.35;3.88;;;;;;;47.58;9.94;97420.16;5072995;28;20403;-69
2023/07/01 11:21:43;;;;;;;4.88;3.22;;;;;;;47.50;10.17;97418.81;5072864;28;20063;-68
2023/07/01 11:24:10;;;;;;;6.68;3.60;;;;;;;47.43;10.41;97417.03;5055015;28;20558;-68
2023/07/01 11:26:38;;;;;;;6.18;3.33;;;;;;;46.44;11.24;97415.84;5022146;28;20040;-68
2023/07/01 11:29:30;;;;;;;7.88;3.55;;;;;;;46.03;11.03;97416.66;5055184;28;20131;-68
2023/07/01 11:32:02;;;;;;;5.50;3.25;;;;;;;45.44;11.47;97412.72;5052728;28;20067;-69
2023/07/01 11:34:28;;;;;;;4.70;3.55;;;;;;;44.40;11.93;97407.22;5055043;28;20039;-68
2023/07/01 11:36:56;;;;;;;5.72;4.20;;;;;;;44.01;12.66;97410.03;5072090;28;20036;-68
2023/07/01 11:39:23;;;;;;;6.53;3.95;;;;;;;43.38;13.09;97414.03;5071624;28;20048;-68